createdAt,value
2019-06-01T00:02:15.583Z,23.21
2019-06-01T00:04:49.699Z,23.09
2019-06-01T00:07:26.639Z,23.10
2019-06-01T00:10:00.262Z,23.07
2019-06-01T00:12:37.121Z,23.03
2019-06-01T00:15:19.348Z,23.05
2019-06-01T00:17:53.704Z,23.03
2019-06-01T00:20:31.464Z,22.80
2019-06-01T00:23:20.156Z,22.96
2019-06-01T00:25:54.582Z,23.02
2019-06-01T00:28:27.503Z,22.90
2019-06-01T00:31:01.558Z,22.80
2019-06-01T00:33:32.904Z,22.80
2019-06-01T00:36:05.130Z,22.75
2019-06-01T00:38:41.760Z,22.81
2019-06-01T00:41:15.002Z,22.88
2019-06-01T00:43:48.442Z,22.79
2019-06-01T00:46:23.642Z,22.70
2019-06-01T00:48:55.772Z,22.67
2019-06-01T00:51:27.200Z,22.69
2019-06-01T00:53:58.328Z,22.62
2019-06-01T00:56:36.918Z,22.59
2019-06-01T00:59:08.412Z,22.54
2019-06-01T01:01:39.476Z,22.60
2019-06-01T01:04:09.999Z,22.56
2019-06-01T01:06:44.481Z,22.48
2019-06-01T01:09:17.504Z,22.44
2019-06-01T01:11:51.221Z,22.41
2019-06-01T01:14:24.844Z,22.44
2019-06-01T01:16:58.927Z,22.44
2019-06-01T01:19:32.871Z,22.33
2019-06-01T01:22:06.985Z,22.29
2019-06-01T01:24:43.582Z,22.24
2019-06-01T01:27:16.011Z,22.28
2019-06-01T01:29:55.021Z,22.34
2019-06-01T01:32:33.094Z,22.36
2019-06-01T01:35:12.508Z,22.39
2019-06-01T01:37:45.467Z,22.22
2019-06-01T01:40:23.379Z,22.30
2019-06-01T01:42:56.622Z,22.26
2019-06-01T01:45:28.937Z,22.35
2019-06-01T01:48:01.417Z,22.29
2019-06-01T01:50:32.250Z,22.28
2019-06-01T01:53:03.419Z,22.17
2019-06-01T01:55:35.673Z,22.18
2019-06-01T01:58:07.844Z,22.12
2019-06-01T02:00:42.261Z,22.10
2019-06-01T02:03:13.403Z,22.07
2019-06-01T02:05:46.996Z,22.06
2019-06-01T02:08:22.144Z,22.09
2019-06-01T02:10:53.553Z,22.04
2019-06-01T02:13:32.191Z,21.98
2019-06-01T02:16:07.460Z,21.81
2019-06-01T02:18:38.045Z,21.73
2019-06-01T02:21:09.625Z,21.87
2019-06-01T02:23:40.522Z,21.60
2019-06-01T02:26:13.896Z,21.71
2019-06-01T02:28:47.994Z,21.54
2019-06-01T02:31:37.467Z,21.57
2019-06-01T02:33:58.546Z,21.65
2019-06-01T02:36:32.743Z,21.51
2019-06-01T02:39:10.133Z,21.62
2019-06-01T02:41:51.766Z,21.42
2019-06-01T02:44:28.682Z,21.49
2019-06-01T02:47:06.357Z,21.53
2019-06-01T02:49:41.152Z,21.40
2019-06-01T02:52:13.735Z,21.19
2019-06-01T02:54:47.678Z,21.24
2019-06-01T02:57:24.069Z,21.35
2019-06-01T02:59:56.294Z,21.31
2019-06-01T03:02:30.619Z,21.30
2019-06-01T03:05:10.812Z,21.44
2019-06-01T03:07:45.854Z,21.35
2019-06-01T03:10:40.744Z,21.24
2019-06-01T03:13:16.060Z,21.10
2019-06-01T03:15:54.497Z,21.08
2019-06-01T03:18:32.789Z,20.99
2019-06-01T03:21:06.353Z,20.99
2019-06-01T03:23:40.510Z,20.66
2019-06-01T03:26:12.661Z,21.23
2019-06-01T03:28:45.589Z,21.12
2019-06-01T03:31:17.261Z,20.89
2019-06-01T03:33:50.466Z,20.90
2019-06-01T03:36:25.908Z,20.83
2019-06-01T03:39:02.247Z,20.93
2019-06-01T03:41:38.614Z,20.73
2019-06-01T03:44:13.136Z,20.95
2019-06-01T03:46:45.405Z,20.87
2019-06-01T03:49:17.785Z,20.97
2019-06-01T03:52:00.542Z,20.69
2019-06-01T03:54:48.585Z,20.84
2019-06-01T03:58:05.015Z,20.84
2019-06-01T04:00:37.880Z,20.83
2019-06-01T04:03:09.282Z,20.76
2019-06-01T04:05:43.545Z,20.52
2019-06-01T04:08:14.578Z,20.79
2019-06-01T04:10:46.137Z,20.79
2019-06-01T04:13:16.589Z,21.01
2019-06-01T04:15:55.075Z,20.82
2019-06-01T04:18:34.959Z,20.79
2019-06-01T04:21:16.086Z,20.78
2019-06-01T04:23:49.376Z,20.93
2019-06-01T04:26:31.571Z,20.93
2019-06-01T04:29:08.312Z,20.87
2019-06-01T04:31:41.159Z,20.75
2019-06-01T04:34:13.103Z,20.89
2019-06-01T04:36:43.634Z,20.53
2019-06-01T04:39:18.688Z,20.37
2019-06-01T04:41:52.821Z,20.55
2019-06-01T04:44:31.084Z,20.66
2019-06-01T04:47:06.677Z,20.62
2019-06-01T04:49:43.268Z,20.72
2019-06-01T04:52:17.602Z,20.55
2019-06-01T04:54:57.644Z,20.63
2019-06-01T04:57:51.894Z,20.63
2019-06-01T05:00:45.052Z,20.76
2019-06-01T05:03:26.347Z,21.09
2019-06-01T05:06:02.432Z,21.09
2019-06-01T05:08:39.064Z,20.81
2019-06-01T05:11:11.861Z,20.80
2019-06-01T05:13:43.321Z,21.14
2019-06-01T05:16:14.949Z,20.97
2019-06-01T05:18:49.448Z,20.97
2019-06-01T05:21:23.099Z,20.94
2019-06-01T05:23:55.695Z,21.11
2019-06-01T05:26:27.817Z,21.12
2019-06-01T05:29:07.717Z,21.09
2019-06-01T05:31:49.088Z,21.15
2019-06-01T05:34:21.021Z,21.00
2019-06-01T05:36:55.270Z,21.11
2019-06-01T05:39:39.423Z,21.50
2019-06-01T05:42:14.669Z,21.29
2019-06-01T05:45:05.948Z,21.37
2019-06-01T05:47:43.873Z,21.54
2019-06-01T05:50:18.462Z,21.48
2019-06-01T05:53:00.717Z,21.46
2019-06-01T05:55:36.304Z,21.43
2019-06-01T05:58:15.232Z,21.63
2019-06-01T06:00:47.854Z,21.57
2019-06-01T06:03:39.313Z,21.89
2019-06-01T06:05:55.274Z,21.54
2019-06-01T06:08:25.569Z,21.73
2019-06-01T06:10:56.973Z,21.77
2019-06-01T06:13:27.705Z,21.92
2019-06-01T06:15:57.941Z,21.86
2019-06-01T06:18:39.598Z,22.14
2019-06-01T06:21:09.860Z,21.94
2019-06-01T06:23:46.045Z,22.20
2019-06-01T06:26:22.597Z,22.29
2019-06-01T06:28:54.594Z,22.40
2019-06-01T06:31:26.815Z,22.52
2019-06-01T06:33:58.385Z,22.62
2019-06-01T06:36:32.901Z,22.45
2019-06-01T06:39:04.794Z,22.39
2019-06-01T06:41:43.773Z,22.35
2019-06-01T06:44:16.397Z,22.52
2019-06-01T06:46:55.082Z,22.76
2019-06-01T06:49:31.148Z,22.49
2019-06-01T06:52:02.126Z,22.86
2019-06-01T06:54:41.912Z,23.01
2019-06-01T06:57:15.947Z,22.93
2019-06-01T06:59:55.054Z,23.05
2019-06-01T07:02:36.659Z,22.89
2019-06-01T07:05:19.219Z,22.86
2019-06-01T07:07:53.100Z,23.16
2019-06-01T07:10:24.241Z,23.14
2019-06-01T07:12:58.397Z,23.15
2019-06-01T07:15:47.628Z,23.58
2019-06-01T07:18:19.421Z,23.72
2019-06-01T07:20:51.268Z,23.76
2019-06-01T07:23:23.734Z,23.82
2019-06-01T07:25:57.347Z,24.14
2019-06-01T07:28:28.631Z,24.03
2019-06-01T07:31:00.885Z,24.09
2019-06-01T07:33:35.101Z,24.13
2019-06-01T07:36:06.510Z,24.49
2019-06-01T07:38:39.716Z,24.18
2019-06-01T07:41:12.870Z,24.03
2019-06-01T07:43:51.540Z,24.12
2019-06-01T07:46:22.779Z,24.04
2019-06-01T07:48:53.116Z,24.18
2019-06-01T07:51:25.431Z,24.47
2019-06-01T07:53:56.508Z,24.55
2019-06-01T07:56:28.723Z,24.70
2019-06-01T07:59:01.407Z,25.00
2019-06-01T08:01:33.798Z,24.83
2019-06-01T08:04:04.919Z,24.97
2019-06-01T08:06:35.658Z,25.13
2019-06-01T08:09:08.919Z,25.13
2019-06-01T08:11:41.232Z,25.36
2019-06-01T08:14:12.623Z,25.59
2019-06-01T08:16:46.123Z,25.46
2019-06-01T08:19:18.449Z,25.66
2019-06-01T08:21:50.792Z,25.79
2019-06-01T08:24:24.213Z,25.90
2019-06-01T08:26:59.322Z,25.82
2019-06-01T08:29:32.949Z,25.82
2019-06-01T08:32:06.268Z,25.75
2019-06-01T08:34:37.037Z,26.00
2019-06-01T08:37:09.373Z,25.77
2019-06-01T08:39:41.158Z,25.88
2019-06-01T08:42:14.222Z,26.45
2019-06-01T08:44:47.411Z,26.47
2019-06-01T08:47:19.608Z,26.70
2019-06-01T08:49:50.052Z,26.51
2019-06-01T08:52:23.891Z,26.73
2019-06-01T08:54:54.273Z,26.76
2019-06-01T08:57:28.832Z,26.89
2019-06-01T08:59:59.991Z,27.15
2019-06-01T09:02:35.365Z,27.17
2019-06-01T09:05:23.312Z,27.38
2019-06-01T09:07:41.186Z,27.44
2019-06-01T09:10:13.971Z,27.28
2019-06-01T09:12:44.733Z,27.81
2019-06-01T09:15:17.976Z,27.79
2019-06-01T09:17:51.703Z,27.89
2019-06-01T09:20:25.402Z,28.09
2019-06-01T09:22:58.726Z,27.83
2019-06-01T09:25:29.682Z,28.18
2019-06-01T09:27:59.971Z,28.07
2019-06-01T09:30:32.114Z,28.20
2019-06-01T09:33:10.568Z,28.46
2019-06-01T09:35:54.353Z,28.53
2019-06-01T09:38:13.828Z,28.66
2019-06-01T09:40:45.009Z,28.49
2019-06-01T09:43:17.307Z,28.65
2019-06-01T09:45:53.277Z,28.33
2019-06-01T09:48:24.407Z,28.67
2019-06-01T09:50:56.343Z,28.82
2019-06-01T09:53:28.798Z,29.10
2019-06-01T09:55:59.709Z,29.10
2019-06-01T09:58:30.234Z,29.33
2019-06-01T10:01:01.862Z,29.71
2019-06-01T10:03:36.486Z,29.54
2019-06-01T10:06:07.726Z,29.86
2019-06-01T10:08:38.239Z,29.87
2019-06-01T10:11:08.504Z,29.86
2019-06-01T10:13:39.018Z,29.77
2019-06-01T10:16:12.381Z,30.15
2019-06-01T10:18:47.878Z,30.28
2019-06-01T10:21:21.795Z,30.55
2019-06-01T10:23:53.249Z,30.62
2019-06-01T10:26:27.502Z,30.37
2019-06-01T10:28:57.752Z,30.79
2019-06-01T10:31:28.230Z,30.99
2019-06-01T10:33:58.528Z,30.98
2019-06-01T10:36:28.865Z,31.08
2019-06-01T10:38:59.785Z,31.48
2019-06-01T10:41:31.228Z,31.46
2019-06-01T10:44:01.550Z,30.83
2019-06-01T10:46:32.002Z,31.02
2019-06-01T10:49:02.308Z,30.97
2019-06-01T10:51:34.073Z,31.17
2019-06-01T10:54:04.444Z,30.83
2019-06-01T10:56:34.735Z,30.85
2019-06-01T10:59:06.736Z,31.16
2019-06-01T11:01:37.873Z,31.46
2019-06-01T11:04:10.272Z,31.49
2019-06-01T11:06:46.046Z,31.78
2019-06-01T11:09:15.604Z,31.88
2019-06-01T11:11:53.825Z,31.91
2019-06-01T11:14:24.783Z,32.06
2019-06-01T11:16:59.997Z,32.37
2019-06-01T11:19:31.546Z,32.28
2019-06-01T11:22:02.968Z,32.56
2019-06-01T11:24:39.514Z,32.46
2019-06-01T11:27:16.239Z,32.18
2019-06-01T11:29:57.712Z,32.16
2019-06-01T11:32:29.742Z,32.03
2019-06-01T11:35:13.833Z,32.17
2019-06-01T11:37:45.137Z,32.63
2019-06-01T11:40:15.359Z,32.89
2019-06-01T11:42:46.881Z,32.62
2019-06-01T11:45:18.394Z,32.90
2019-06-01T11:47:51.897Z,33.21
2019-06-01T11:50:23.460Z,33.14
2019-06-01T11:52:55.936Z,33.14
2019-06-01T11:55:28.051Z,33.44
2019-06-01T11:57:58.740Z,33.73
2019-06-01T12:00:29.312Z,33.72
2019-06-01T12:03:00.092Z,33.76
2019-06-01T12:05:33.187Z,33.76
2019-06-01T12:08:07.075Z,33.82
2019-06-01T12:10:43.278Z,34.14
2019-06-01T12:13:16.366Z,34.42
2019-06-01T12:15:49.468Z,34.41
2019-06-01T12:18:21.842Z,34.41
2019-06-01T12:20:54.336Z,34.53
2019-06-01T12:23:27.568Z,34.38
2019-06-01T12:25:59.977Z,34.41
2019-06-01T12:28:37.590Z,34.72
2019-06-01T12:31:09.746Z,34.79
2019-06-01T12:33:41.925Z,34.88
2019-06-01T12:36:12.240Z,34.94
2019-06-01T12:38:52.956Z,35.12
2019-06-01T12:41:23.758Z,35.22
2019-06-01T12:44:14.721Z,35.65
2019-06-01T12:46:49.012Z,35.72
2019-06-01T12:49:21.368Z,35.61
2019-06-01T12:51:53.004Z,35.37
2019-06-01T12:54:24.710Z,35.66
2019-06-01T12:56:55.313Z,35.86
2019-06-01T12:59:25.565Z,36.29
2019-06-01T13:01:57.823Z,36.36
2019-06-01T13:04:28.437Z,35.89
2019-06-01T13:07:01.576Z,35.99
2019-06-01T13:09:33.291Z,36.24
2019-06-01T13:12:03.610Z,36.31
2019-06-01T13:14:33.961Z,36.08
2019-06-01T13:17:07.792Z,36.20
2019-06-01T13:19:36.794Z,36.41
2019-06-01T13:22:10.108Z,36.53
2019-06-01T13:24:43.719Z,37.07
2019-06-01T13:27:14.509Z,37.19
2019-06-01T13:29:45.818Z,37.19
2019-06-01T13:32:16.131Z,37.32
2019-06-01T13:34:47.155Z,37.42
2019-06-01T13:37:19.545Z,37.39
2019-06-01T13:39:55.780Z,37.53
2019-06-01T13:42:22.992Z,37.06
2019-06-01T13:44:53.656Z,37.11
2019-06-01T13:47:24.428Z,37.35
2019-06-01T13:49:54.734Z,37.29
2019-06-01T13:52:26.940Z,36.82
2019-06-01T13:54:59.464Z,36.78
2019-06-01T13:57:29.745Z,36.99
2019-06-01T14:00:00.528Z,37.01
2019-06-01T14:02:31.700Z,36.34
2019-06-01T14:05:02.073Z,36.67
2019-06-01T14:07:32.269Z,37.08
2019-06-01T14:10:05.896Z,37.54
2019-06-01T14:12:36.123Z,37.71
2019-06-01T14:15:07.218Z,37.70
2019-06-01T14:17:37.591Z,38.26
2019-06-01T14:20:08.471Z,37.93
2019-06-01T14:22:41.236Z,38.37
2019-06-01T14:25:14.958Z,38.85
2019-06-01T14:27:46.098Z,39.03
2019-06-01T14:30:17.791Z,38.83
2019-06-01T14:32:48.835Z,39.16
2019-06-01T14:35:19.544Z,39.04
2019-06-01T14:37:51.336Z,39.24
2019-06-01T14:40:23.624Z,39.27
2019-06-01T14:42:53.924Z,39.06
2019-06-01T14:45:26.234Z,39.30
2019-06-01T14:47:58.610Z,39.86
2019-06-01T14:50:29.101Z,40.20
2019-06-01T14:53:05.165Z,40.54
2019-06-01T14:55:36.983Z,40.75
2019-06-01T14:58:07.332Z,40.94
2019-06-01T15:00:37.675Z,41.10
2019-06-01T15:03:08.490Z,41.41
2019-06-01T15:05:39.236Z,41.26
2019-06-01T15:08:10.683Z,41.36
2019-06-01T15:10:41.535Z,41.45
2019-06-01T15:13:12.480Z,41.50
2019-06-01T15:15:43.332Z,41.31
2019-06-01T15:18:14.487Z,41.05
2019-06-01T15:20:44.792Z,40.88
2019-06-01T15:23:16.359Z,41.12
2019-06-01T15:25:47.299Z,40.79
2019-06-01T15:28:17.882Z,40.56
2019-06-01T15:30:50.732Z,40.13
2019-06-01T15:33:21.250Z,39.50
2019-06-01T15:35:53.494Z,38.64
2019-06-01T15:38:26.529Z,38.13
2019-06-01T15:40:57.962Z,37.49
2019-06-01T15:43:32.786Z,37.01
2019-06-01T15:46:10.486Z,36.70
2019-06-01T15:48:42.706Z,36.23
2019-06-01T15:51:12.960Z,35.81
2019-06-01T15:53:44.029Z,35.58
2019-06-01T15:56:14.479Z,35.41
2019-06-01T15:58:52.835Z,35.09
2019-06-01T16:01:18.101Z,34.68
2019-06-01T16:03:49.428Z,34.55
2019-06-01T16:06:23.846Z,34.40
2019-06-01T16:08:57.293Z,34.29
2019-06-01T16:11:33.349Z,33.96
2019-06-01T16:14:07.258Z,33.98
2019-06-01T16:16:41.874Z,33.79
2019-06-01T16:19:19.189Z,33.68
2019-06-01T16:22:03.395Z,33.63
2019-06-01T16:24:49.654Z,33.55
2019-06-01T16:27:34.351Z,33.50
2019-06-01T16:30:09.313Z,33.36
2019-06-01T16:32:41.623Z,33.22
2019-06-01T16:35:11.953Z,33.20
2019-06-01T16:37:45.250Z,33.01
2019-06-01T16:40:18.596Z,33.04
2019-06-01T16:42:51.782Z,33.02
2019-06-01T16:45:23.641Z,32.94
2019-06-01T16:47:55.474Z,32.86
2019-06-01T16:50:26.634Z,32.80
2019-06-01T16:53:00.183Z,32.72
2019-06-01T16:55:32.275Z,32.66
2019-06-01T16:58:06.589Z,32.78
2019-06-01T17:00:39.405Z,32.55
2019-06-01T17:03:11.563Z,32.49
2019-06-01T17:05:48.388Z,32.46
2019-06-01T17:08:20.475Z,32.45
2019-06-01T17:10:50.966Z,32.33
2019-06-01T17:13:25.594Z,32.38
2019-06-01T17:16:01.022Z,32.35
2019-06-01T17:18:38.827Z,32.30
2019-06-01T17:21:11.762Z,32.21
2019-06-01T17:23:45.906Z,32.20
2019-06-01T17:26:21.914Z,32.12
2019-06-01T17:28:54.244Z,32.13
2019-06-01T17:31:27.535Z,32.10
2019-06-01T17:33:58.478Z,32.04
2019-06-01T17:36:29.226Z,31.96
2019-06-01T17:38:59.972Z,31.93
2019-06-01T17:41:30.214Z,31.91
2019-06-01T17:44:02.640Z,31.93
2019-06-01T17:46:52.450Z,31.88
2019-06-01T17:49:22.995Z,31.83
2019-06-01T17:52:03.571Z,31.71
2019-06-01T17:54:36.434Z,31.73
2019-06-01T17:57:09.250Z,31.76
2019-06-01T17:59:41.327Z,31.69
2019-06-01T18:02:13.659Z,31.62
2019-06-01T18:04:47.834Z,31.63
2019-06-01T18:07:19.568Z,31.64
2019-06-01T18:09:50.584Z,31.61
2019-06-01T18:12:23.974Z,31.58
2019-06-01T18:14:55.708Z,31.60
2019-06-01T18:17:28.262Z,31.54
2019-06-01T18:19:59.192Z,31.55
2019-06-01T18:22:35.661Z,31.53
2019-06-01T18:25:13.759Z,31.47
2019-06-01T18:27:48.141Z,31.44
2019-06-01T18:30:31.131Z,31.37
2019-06-01T18:33:03.076Z,31.33
2019-06-01T18:35:34.266Z,31.29
2019-06-01T18:38:07.790Z,31.24
2019-06-01T18:40:38.158Z,31.23
2019-06-01T18:43:12.255Z,31.19
2019-06-01T18:45:45.168Z,31.13
2019-06-01T18:48:16.523Z,31.09
2019-06-01T18:50:46.973Z,31.04
2019-06-01T18:53:22.974Z,30.97
2019-06-01T18:55:56.399Z,30.93
2019-06-01T18:58:28.637Z,30.88
2019-06-01T19:01:00.509Z,30.81
2019-06-01T19:03:32.421Z,30.76
2019-06-01T19:06:11.685Z,30.78
2019-06-01T19:08:48.205Z,30.69
2019-06-01T19:11:35.718Z,30.62
2019-06-01T19:14:06.009Z,30.58
2019-06-01T19:16:36.708Z,30.45
2019-06-01T19:19:08.605Z,30.45
2019-06-01T19:21:39.067Z,30.43
2019-06-01T19:24:20.055Z,30.39
2019-06-01T19:26:51.725Z,30.34
2019-06-01T19:29:29.110Z,30.28
2019-06-01T19:32:01.973Z,30.24
2019-06-01T19:34:36.293Z,30.19
2019-06-01T19:37:15.253Z,30.15
2019-06-01T19:39:51.052Z,30.11
2019-06-01T19:42:26.996Z,30.04
2019-06-01T19:45:28.855Z,29.97
2019-06-01T19:48:23.205Z,29.93
2019-06-01T19:50:59.040Z,29.88
2019-06-01T19:53:36.451Z,29.82
2019-06-01T19:56:10.817Z,29.73
2019-06-01T19:58:51.603Z,29.70
2019-06-01T20:01:26.618Z,29.65
2019-06-01T20:04:00.212Z,29.60
2019-06-01T20:09:37.925Z,29.53
2019-06-01T20:16:16.740Z,29.41
2019-06-01T20:19:02.053Z,29.32
2019-06-01T20:21:35.607Z,29.25
2019-06-01T20:24:17.468Z,29.20
2019-06-01T20:26:52.569Z,29.17
2019-06-01T20:29:38.968Z,29.12
2019-06-01T20:32:15.919Z,29.07
2019-06-01T20:34:49.041Z,29.03
2019-06-01T20:37:46.598Z,28.98
2019-06-01T20:40:25.824Z,28.96
2019-06-01T20:43:01.488Z,28.91
2019-06-01T20:45:37.562Z,28.90
2019-06-01T20:48:10.942Z,28.85
2019-06-01T20:50:45.036Z,28.78
2019-06-01T20:53:16.874Z,28.76
2019-06-01T20:55:50.318Z,28.76
2019-06-01T20:58:24.799Z,28.70
2019-06-01T21:01:05.522Z,28.69
2019-06-01T21:03:42.694Z,28.58
2019-06-01T21:06:18.208Z,28.57
2019-06-01T21:08:52.985Z,28.50
2019-06-01T21:11:27.384Z,28.47
2019-06-01T21:13:58.915Z,28.45
2019-06-01T21:16:44.361Z,28.43
2019-06-01T21:19:18.173Z,28.33
2019-06-01T21:21:52.649Z,28.31
2019-06-01T21:24:46.350Z,28.24
2019-06-01T21:27:30.930Z,28.24
2019-06-01T21:30:12.822Z,28.19
2019-06-01T21:32:48.641Z,28.18
2019-06-01T21:35:23.572Z,28.17
2019-06-01T21:37:57.574Z,28.14
2019-06-01T21:40:27.901Z,28.10
2019-06-01T21:43:22.979Z,28.08
2019-06-01T21:45:41.337Z,28.05
2019-06-01T21:48:19.960Z,27.99
2019-06-01T21:50:59.998Z,27.98
2019-06-01T21:53:34.864Z,27.93
2019-06-01T21:56:07.577Z,27.87
2019-06-01T21:58:43.172Z,27.84
2019-06-01T22:01:24.902Z,27.81
2019-06-01T22:04:02.821Z,27.76
2019-06-01T22:06:35.650Z,27.76
2019-06-01T22:09:28.735Z,27.71
2019-06-01T22:12:03.565Z,27.71
2019-06-01T22:14:55.400Z,27.70
2019-06-01T22:17:29.920Z,27.65
2019-06-01T22:20:04.100Z,27.62
2019-06-01T22:22:46.854Z,27.57
2019-06-01T22:25:24.480Z,27.57
2019-06-01T22:27:57.829Z,27.53
2019-06-01T22:30:31.867Z,27.48
2019-06-01T22:33:09.230Z,27.46
2019-06-01T22:35:41.422Z,27.42
2019-06-01T22:38:16.168Z,27.39
2019-06-01T22:40:48.017Z,27.36
2019-06-01T22:43:41.242Z,27.34
2019-06-01T22:46:04.789Z,27.32
2019-06-01T22:48:39.244Z,27.21
2019-06-01T22:51:12.309Z,27.14
2019-06-01T22:53:57.739Z,27.11
2019-06-01T22:56:34.399Z,27.10
2019-06-01T22:59:13.197Z,27.10
2019-06-01T23:02:11.319Z,26.98
2019-06-01T23:04:52.192Z,27.01
2019-06-01T23:07:25.124Z,26.96
2019-06-01T23:09:59.040Z,26.97
2019-06-01T23:12:55.810Z,26.98
2019-06-01T23:15:29.822Z,26.93
2019-06-01T23:18:00.565Z,26.91
2019-06-01T23:20:35.142Z,26.88
2019-06-01T23:23:06.129Z,26.87
2019-06-01T23:25:39.117Z,26.86
2019-06-01T23:28:12.521Z,26.84
2019-06-01T23:30:48.597Z,26.84
2019-06-01T23:33:38.746Z,26.77
2019-06-01T23:36:14.091Z,26.81
2019-06-01T23:38:47.587Z,26.77
2019-06-01T23:41:41.281Z,26.74
2019-06-01T23:44:13.558Z,26.73
2019-06-01T23:46:45.782Z,26.69
2019-06-01T23:49:23.109Z,26.62
2019-06-01T23:52:01.759Z,26.63
2019-06-01T23:54:33.935Z,26.57
2019-06-01T23:57:10.273Z,26.57
2019-06-01T23:59:55.196Z,26.49
